createdAt,value
2016-10-22T00:00:12.848Z,0
2016-10-22T00:01:12.841Z,0
2016-10-22T00:02:13.139Z,0
2016-10-22T00:03:13.120Z,0
2016-10-22T00:04:12.801Z,0
2016-10-22T00:05:13.094Z,0
2016-10-22T00:06:12.754Z,0
2016-10-22T00:07:12.746Z,0
2016-10-22T00:08:13.046Z,0
2016-10-22T00:09:13.017Z,0
2016-10-22T00:10:12.994Z,0
2016-10-22T00:11:12.988Z,0
2016-10-22T00:12:12.657Z,0
2016-10-22T00:13:12.959Z,0
2016-10-22T00:14:12.943Z,0
2016-10-22T00:15:12.936Z,0
2016-10-22T00:16:12.904Z,0
2016-10-22T00:17:12.941Z,0
2016-10-22T00:18:12.868Z,0
2016-10-22T00:19:12.867Z,0
2016-10-22T00:20:12.527Z,0
2016-10-22T00:21:12.838Z,0
2016-10-22T00:22:12.807Z,0
2016-10-22T00:23:12.786Z,0
2016-10-22T00:24:12.777Z,0
2016-10-22T00:25:12.755Z,0
2016-10-22T00:26:12.126Z,0
2016-10-22T00:27:12.720Z,0
2016-10-22T00:28:12.717Z,0
2016-10-22T00:29:12.690Z,0
2016-10-22T00:30:12.677Z,0
2016-10-22T00:31:12.340Z,0
2016-10-22T00:32:12.671Z,0
2016-10-22T00:33:12.321Z,0
2016-10-22T00:34:12.614Z,0
2016-10-22T00:35:12.608Z,0
2016-10-22T00:36:12.268Z,0
2016-10-22T00:37:12.294Z,0
2016-10-22T00:38:12.229Z,0
2016-10-22T00:39:12.538Z,0
2016-10-22T00:40:12.525Z,0
2016-10-22T00:41:12.491Z,0
2016-10-22T00:42:12.483Z,0
2016-10-22T00:43:12.165Z,0
2016-10-22T00:44:12.438Z,0
2016-10-22T00:45:12.425Z,0
2016-10-22T00:46:12.421Z,0
2016-10-22T00:47:12.400Z,0
2016-10-22T00:48:12.381Z,0
2016-10-22T00:49:12.363Z,0
2016-10-22T00:50:12.017Z,0
2016-10-22T00:51:12.329Z,0
2016-10-22T00:52:12.310Z,0
2016-10-22T00:53:12.299Z,0
2016-10-22T00:54:11.969Z,0
2016-10-22T00:55:12.270Z,0
2016-10-22T00:56:12.238Z,0
2016-10-22T00:57:12.228Z,0
2016-10-22T00:58:12.210Z,0
2016-10-22T00:59:11.885Z,0
2016-10-22T01:00:12.192Z,0
2016-10-22T01:01:12.163Z,0
2016-10-22T01:02:12.148Z,0
2016-10-22T01:03:12.132Z,0
2016-10-22T01:04:12.115Z,0
2016-10-22T01:05:12.092Z,0
2016-10-22T01:06:11.773Z,0
2016-10-22T01:07:12.054Z,0
2016-10-22T01:08:12.049Z,0
2016-10-22T01:09:11.707Z,0
2016-10-22T01:10:12.001Z,0
2016-10-22T01:11:11.999Z,0
2016-10-22T01:12:11.979Z,0
2016-10-22T01:13:11.968Z,0
2016-10-22T01:14:11.945Z,0
2016-10-22T01:15:11.611Z,0
2016-10-22T01:16:11.904Z,0
2016-10-22T01:17:11.885Z,0
2016-10-22T01:18:11.880Z,0
2016-10-22T01:19:11.850Z,0
2016-10-22T01:20:11.861Z,0
2016-10-22T01:21:11.822Z,0
2016-10-22T01:22:11.819Z,0
2016-10-22T01:23:11.471Z,0
2016-10-22T01:24:11.466Z,0
2016-10-22T01:25:11.755Z,0
2016-10-22T01:26:11.772Z,0
2016-10-22T01:27:11.404Z,0
2016-10-22T01:28:11.391Z,0
2016-10-22T01:29:11.378Z,0
2016-10-22T01:30:10.725Z,0
2016-10-22T01:31:11.674Z,0
2016-10-22T01:32:11.641Z,0
2016-10-22T01:33:11.299Z,0
2016-10-22T01:34:11.296Z,0
2016-10-22T01:35:11.585Z,0
2016-10-22T01:36:11.579Z,0
2016-10-22T01:37:11.555Z,0
2016-10-22T01:38:11.529Z,0
2016-10-22T01:39:11.520Z,0
2016-10-22T01:40:11.500Z,0
2016-10-22T01:41:11.485Z,0
2016-10-22T01:42:11.470Z,0
2016-10-22T01:43:11.446Z,0
2016-10-22T01:44:11.435Z,0
2016-10-22T01:45:11.411Z,0
2016-10-22T01:46:11.395Z,0
2016-10-22T01:47:11.381Z,0
2016-10-22T01:48:11.370Z,0
2016-10-22T01:49:11.350Z,0
2016-10-22T01:50:11.340Z,0
2016-10-22T01:51:11.313Z,0
2016-10-22T01:52:11.289Z,0
2016-10-22T01:53:11.278Z,0
2016-10-22T01:54:11.296Z,0
2016-10-22T01:55:11.250Z,0
2016-10-22T01:56:11.226Z,0
2016-10-22T01:57:11.207Z,0
2016-10-22T01:58:11.193Z,0
2016-10-22T01:59:10.872Z,0
2016-10-22T02:00:11.159Z,0
2016-10-22T02:01:10.826Z,0
2016-10-22T02:02:11.126Z,0
2016-10-22T02:03:11.105Z,0
2016-10-22T02:04:11.092Z,0
2016-10-22T02:05:10.445Z,0
2016-10-22T02:06:11.063Z,0
2016-10-22T02:07:11.032Z,0
2016-10-22T02:08:11.023Z,0
2016-10-22T02:09:11.028Z,0
2016-10-22T02:10:11.020Z,0
2016-10-22T02:11:10.655Z,0
2016-10-22T02:12:10.950Z,0
2016-10-22T02:13:10.937Z,0
2016-10-22T02:14:10.916Z,0
2016-10-22T02:15:10.912Z,0
2016-10-22T02:16:10.891Z,0
2016-10-22T02:17:10.868Z,0
2016-10-22T02:18:10.856Z,0
2016-10-22T02:19:10.837Z,0
2016-10-22T02:20:10.812Z,0
2016-10-22T02:21:10.833Z,0
2016-10-22T02:22:10.506Z,0
2016-10-22T02:23:10.486Z,0
2016-10-22T02:24:10.743Z,0
2016-10-22T02:25:10.728Z,0
2016-10-22T02:26:10.396Z,0
2016-10-22T02:27:10.385Z,0
2016-10-22T02:28:10.688Z,0
2016-10-22T02:29:10.663Z,0
2016-10-22T02:30:10.653Z,0
2016-10-22T02:31:10.352Z,0
2016-10-22T02:32:10.611Z,0
2016-10-22T02:33:10.589Z,0
2016-10-22T02:34:10.582Z,0
2016-10-22T02:35:09.937Z,0
2016-10-22T02:36:10.540Z,0
2016-10-22T02:37:10.531Z,0
2016-10-22T02:38:10.503Z,0
2016-10-22T02:39:10.497Z,0
2016-10-22T02:40:10.471Z,0
2016-10-22T02:41:10.451Z,0
2016-10-22T02:42:10.432Z,0
2016-10-22T02:43:10.426Z,0
2016-10-22T02:44:10.405Z,0
2016-10-22T02:45:10.392Z,0
2016-10-22T02:46:10.370Z,0
2016-10-22T02:47:10.363Z,0
2016-10-22T02:48:10.335Z,0
2016-10-22T02:49:10.326Z,0
2016-10-22T02:50:09.989Z,0
2016-10-22T02:51:10.290Z,0
2016-10-22T02:52:09.960Z,0
2016-10-22T02:53:10.256Z,0
2016-10-22T02:54:10.240Z,0
2016-10-22T02:55:10.216Z,0
2016-10-22T02:56:10.195Z,0
2016-10-22T02:57:10.178Z,0
2016-10-22T02:58:10.162Z,0
2016-10-22T02:59:10.148Z,0
2016-10-22T03:00:10.128Z,0
2016-10-22T03:01:10.120Z,0
2016-10-22T03:02:09.779Z,0
2016-10-22T03:03:10.079Z,0
2016-10-22T03:04:10.063Z,0
2016-10-22T03:05:10.045Z,0
2016-10-22T03:06:10.073Z,0
2016-10-22T03:07:10.021Z,0
2016-10-22T03:08:09.996Z,0
2016-10-22T03:09:09.985Z,0
2016-10-22T03:10:09.966Z,0
2016-10-22T03:11:09.958Z,0
2016-10-22T03:12:09.609Z,0
2016-10-22T03:13:09.917Z,0
2016-10-22T03:14:09.577Z,0
2016-10-22T03:15:09.900Z,0
2016-10-22T03:16:09.864Z,0
2016-10-22T03:17:09.847Z,0
2016-10-22T03:18:09.200Z,0
2016-10-22T03:19:09.815Z,0
2016-10-22T03:20:09.806Z,0
2016-10-22T03:21:09.786Z,0
2016-10-22T03:22:09.761Z,0
2016-10-22T03:23:09.745Z,0
2016-10-22T03:24:09.760Z,0
2016-10-22T03:25:09.709Z,0
2016-10-22T03:26:09.700Z,0
2016-10-22T03:27:09.676Z,0
2016-10-22T03:28:09.664Z,0
2016-10-22T03:29:09.646Z,0
2016-10-22T03:30:09.631Z,0
2016-10-22T03:31:09.608Z,0
2016-10-22T03:32:09.597Z,0
2016-10-22T03:33:09.573Z,0
2016-10-22T03:34:09.246Z,0
2016-10-22T03:35:09.225Z,0
2016-10-22T03:36:09.524Z,0
2016-10-22T03:37:09.511Z,0
2016-10-22T03:38:09.181Z,0
2016-10-22T03:39:09.160Z,0
2016-10-22T03:40:09.455Z,0
2016-10-22T03:41:09.130Z,0
2016-10-22T03:42:09.431Z,0
2016-10-22T03:43:09.417Z,0
2016-10-22T03:44:09.394Z,0
2016-10-22T03:45:09.387Z,0
2016-10-22T03:46:09.357Z,0
2016-10-22T03:47:09.353Z,0
2016-10-22T03:48:09.321Z,0
2016-10-22T03:49:09.310Z,0
2016-10-22T03:50:09.303Z,0
2016-10-22T03:51:09.264Z,0
2016-10-22T03:52:09.259Z,0
2016-10-22T03:53:09.241Z,0
2016-10-22T03:54:09.220Z,0
2016-10-22T03:55:09.227Z,0
2016-10-22T03:56:08.871Z,0
2016-10-22T03:57:09.173Z,0
2016-10-22T03:58:08.847Z,0
2016-10-22T03:59:09.132Z,0
2016-10-22T04:00:08.825Z,0
2016-10-22T04:01:09.108Z,0
2016-10-22T04:02:09.092Z,0
2016-10-22T04:03:09.063Z,0
2016-10-22T04:04:09.044Z,0
2016-10-22T04:05:09.037Z,0
2016-10-22T04:06:09.028Z,0
2016-10-22T04:07:09.004Z,0
2016-10-22T04:08:08.975Z,0
2016-10-22T04:09:08.973Z,0
2016-10-22T04:10:08.643Z,0
2016-10-22T04:11:08.942Z,0
2016-10-22T04:12:08.607Z,0
2016-10-22T04:13:08.897Z,0
2016-10-22T04:14:08.883Z,0
2016-10-22T04:15:08.867Z,0
2016-10-22T04:16:08.548Z,0
2016-10-22T04:17:08.867Z,0
2016-10-22T04:18:08.503Z,0
2016-10-22T04:19:08.799Z,0
2016-10-22T04:20:08.796Z,0
2016-10-22T04:21:08.760Z,0
2016-10-22T04:22:08.753Z,0
2016-10-22T04:23:08.736Z,0
2016-10-22T04:24:08.714Z,0
2016-10-22T04:25:08.701Z,0
2016-10-22T04:26:08.682Z,0
2016-10-22T04:27:08.361Z,0
2016-10-22T04:28:08.660Z,0
2016-10-22T04:29:08.637Z,0
2016-10-22T04:30:08.623Z,0
2016-10-22T04:31:08.611Z,0
2016-10-22T04:32:08.587Z,0
2016-10-22T04:33:08.568Z,0
2016-10-22T04:34:08.556Z,0
2016-10-22T04:35:08.230Z,0
2016-10-22T04:36:08.515Z,0
2016-10-22T04:37:08.512Z,0
2016-10-22T04:38:08.501Z,0
2016-10-22T04:39:08.148Z,0
2016-10-22T04:40:08.142Z,0
2016-10-22T04:41:08.439Z,0
2016-10-22T04:42:08.106Z,0
2016-10-22T04:43:08.085Z,0
2016-10-22T04:44:08.386Z,0
2016-10-22T04:45:08.376Z,0
2016-10-22T04:46:08.354Z,0
2016-10-22T04:47:08.342Z,0
2016-10-22T04:48:08.353Z,0
2016-10-22T04:49:08.300Z,0
2016-10-22T04:50:08.287Z,0
2016-10-22T04:51:08.288Z,0
2016-10-22T04:52:07.959Z,0
2016-10-22T04:53:08.255Z,0
2016-10-22T04:54:08.224Z,0
2016-10-22T04:55:08.203Z,0
2016-10-22T04:56:08.196Z,0
2016-10-22T04:57:08.175Z,0
2016-10-22T04:58:08.162Z,0
2016-10-22T04:59:08.156Z,0
2016-10-22T05:00:08.134Z,0
2016-10-22T05:01:07.796Z,0
2016-10-22T05:02:08.093Z,0
2016-10-22T05:03:08.072Z,0
2016-10-22T05:04:08.055Z,0
2016-10-22T05:05:07.740Z,0
2016-10-22T05:06:08.026Z,0
2016-10-22T05:07:08.012Z,0
2016-10-22T05:08:07.998Z,0
2016-10-22T05:09:08.052Z,0
2016-10-22T05:10:07.970Z,0
2016-10-22T05:11:07.951Z,0
2016-10-22T05:12:07.932Z,0
2016-10-22T05:13:07.915Z,0
2016-10-22T05:14:07.897Z,0
2016-10-22T05:15:07.877Z,0
2016-10-22T05:16:07.882Z,0
2016-10-22T05:17:07.848Z,0
2016-10-22T05:18:07.537Z,0
2016-10-22T05:19:07.501Z,0
2016-10-22T05:20:07.814Z,0
2016-10-22T05:21:07.807Z,0
2016-10-22T05:22:07.763Z,0
2016-10-22T05:23:07.768Z,0
2016-10-22T05:24:07.422Z,0
2016-10-22T05:25:07.728Z,0
2016-10-22T05:26:07.708Z,0
2016-10-22T05:27:07.689Z,0
2016-10-22T05:28:07.682Z,0
2016-10-22T05:29:07.662Z,0
2016-10-22T05:30:07.639Z,0
2016-10-22T05:31:07.310Z,0
2016-10-22T05:32:07.609Z,0
2016-10-22T05:33:07.596Z,0
2016-10-22T05:34:07.577Z,0
2016-10-22T05:35:07.569Z,0
2016-10-22T05:36:07.544Z,0
2016-10-22T05:37:07.214Z,0
2016-10-22T05:38:07.508Z,0
2016-10-22T05:39:07.191Z,0
2016-10-22T05:40:07.480Z,0
2016-10-22T05:41:07.466Z,0
2016-10-22T05:42:07.449Z,0
2016-10-22T05:43:07.430Z,0
2016-10-22T05:44:07.425Z,0
2016-10-22T05:45:07.403Z,0
2016-10-22T05:46:07.394Z,0
2016-10-22T05:47:07.364Z,0
2016-10-22T05:48:07.352Z,0
2016-10-22T05:49:07.339Z,0
2016-10-22T05:50:07.316Z,0
2016-10-22T05:51:07.304Z,0
2016-10-22T05:52:07.285Z,0
2016-10-22T05:53:07.268Z,0
2016-10-22T05:54:07.261Z,0
2016-10-22T05:55:07.245Z,0
2016-10-22T05:56:07.230Z,0
2016-10-22T05:57:07.209Z,0
2016-10-22T05:58:07.196Z,0
2016-10-22T05:59:07.171Z,0
2016-10-22T06:00:07.161Z,0
2016-10-22T06:01:07.192Z,0
2016-10-22T06:02:07.136Z,0
2016-10-22T06:03:07.124Z,0
2016-10-22T06:04:07.091Z,0
2016-10-22T06:05:06.767Z,0
2016-10-22T06:06:06.754Z,0
2016-10-22T06:07:07.091Z,0
2016-10-22T06:08:07.030Z,0
2016-10-22T06:09:07.011Z,0
2016-10-22T06:10:06.365Z,0
2016-10-22T06:11:06.993Z,0
2016-10-22T06:12:06.979Z,0
2016-10-22T06:13:06.952Z,0
2016-10-22T06:14:06.930Z,0
2016-10-22T06:15:06.920Z,0
2016-10-22T06:16:06.592Z,0
2016-10-22T06:17:06.889Z,0
2016-10-22T06:18:06.559Z,0
2016-10-22T06:19:06.861Z,0
2016-10-22T06:20:06.538Z,0
2016-10-22T06:21:06.827Z,0
2016-10-22T06:22:06.803Z,0
2016-10-22T06:23:06.790Z,0
2016-10-22T06:24:06.781Z,0
2016-10-22T06:25:06.758Z,0
2016-10-22T06:26:06.745Z,0
2016-10-22T06:27:06.409Z,0
2016-10-22T06:28:06.716Z,0
2016-10-22T06:29:06.699Z,0
2016-10-22T06:30:06.681Z,0
2016-10-22T06:31:06.664Z,0
2016-10-22T06:32:06.655Z,0
2016-10-22T06:33:05.998Z,0
2016-10-22T06:34:06.621Z,0
2016-10-22T06:35:06.595Z,0
2016-10-22T06:36:06.589Z,0
2016-10-22T06:37:06.582Z,0
2016-10-22T06:38:06.238Z,0
2016-10-22T06:39:06.557Z,0
2016-10-22T06:40:06.528Z,0
2016-10-22T06:41:06.558Z,0
2016-10-22T06:42:06.491Z,0
2016-10-22T06:43:06.475Z,0
2016-10-22T06:44:06.456Z,0
2016-10-22T06:45:06.453Z,0
2016-10-22T06:46:06.426Z,0
2016-10-22T06:47:06.415Z,4
2016-10-22T06:48:06.406Z,4
2016-10-22T06:49:06.382Z,4
2016-10-22T06:50:06.047Z,0
2016-10-22T06:51:06.350Z,4
2016-10-22T06:52:06.341Z,4
2016-10-22T06:53:06.320Z,4
2016-10-22T06:54:06.294Z,8
2016-10-22T06:55:06.288Z,4
2016-10-22T06:56:06.269Z,8
2016-10-22T06:57:06.265Z,8
2016-10-22T06:58:06.240Z,8
2016-10-22T06:59:06.223Z,8
2016-10-22T07:00:06.195Z,12
2016-10-22T07:01:06.188Z,8
2016-10-22T07:02:06.166Z,12
2016-10-22T07:03:06.162Z,12
2016-10-22T07:04:06.142Z,12
2016-10-22T07:05:06.145Z,12
2016-10-22T07:06:06.116Z,20
2016-10-22T07:07:06.095Z,16
2016-10-22T07:08:06.083Z,20
2016-10-22T07:09:05.755Z,20
2016-10-22T07:10:06.053Z,24
2016-10-22T07:11:06.032Z,24
2016-10-22T07:12:06.016Z,24
2016-10-22T07:13:06.017Z,24
2016-10-22T07:14:06.020Z,20
2016-10-22T07:15:05.975Z,20
2016-10-22T07:16:05.986Z,20
2016-10-22T07:17:05.935Z,20
2016-10-22T07:18:05.613Z,20
2016-10-22T07:19:05.912Z,20
2016-10-22T07:20:05.610Z,20
2016-10-22T07:21:05.872Z,24
2016-10-22T07:22:05.865Z,24
2016-10-22T07:23:05.847Z,24
2016-10-22T07:24:05.824Z,24
2016-10-22T07:25:05.498Z,20
2016-10-22T07:26:05.793Z,24
2016-10-22T07:27:05.800Z,24
2016-10-22T07:28:05.758Z,24
2016-10-22T07:29:05.759Z,24
2016-10-22T07:30:05.738Z,24
2016-10-22T07:31:05.725Z,24
2016-10-22T07:32:05.702Z,24
2016-10-22T07:33:05.367Z,20
2016-10-22T07:34:05.677Z,20
2016-10-22T07:35:05.336Z,24
2016-10-22T07:36:05.630Z,20
2016-10-22T07:37:05.611Z,24
2016-10-22T07:38:05.279Z,24
2016-10-22T07:39:05.617Z,24
2016-10-22T07:40:05.577Z,24
2016-10-22T07:41:05.548Z,24
2016-10-22T07:42:05.231Z,24
2016-10-22T07:43:05.530Z,20
2016-10-22T07:44:05.188Z,24
2016-10-22T07:45:05.487Z,24
2016-10-22T07:46:05.192Z,24
2016-10-22T07:47:05.465Z,24
2016-10-22T07:48:05.129Z,24
2016-10-22T07:49:05.462Z,24
2016-10-22T07:50:05.404Z,24
2016-10-22T07:51:05.087Z,24
2016-10-22T07:52:05.065Z,20
2016-10-22T07:53:05.365Z,20
2016-10-22T07:54:05.356Z,20
2016-10-22T07:55:05.337Z,24
2016-10-22T07:56:05.002Z,24
2016-10-22T07:57:05.324Z,24
2016-10-22T07:58:05.297Z,24
2016-10-22T07:59:05.267Z,24
2016-10-22T08:00:05.265Z,24
2016-10-22T08:01:05.239Z,24
2016-10-22T08:02:05.221Z,24
2016-10-22T08:03:05.205Z,24
2016-10-22T08:04:05.183Z,24
2016-10-22T08:05:05.183Z,24
2016-10-22T08:06:04.531Z,24
2016-10-22T08:07:05.145Z,24
2016-10-22T08:08:05.147Z,24
2016-10-22T08:09:05.112Z,24
2016-10-22T08:10:05.089Z,24
2016-10-22T08:11:04.765Z,24
2016-10-22T08:12:04.759Z,24
2016-10-22T08:13:05.045Z,24
2016-10-22T08:14:05.065Z,24
2016-10-22T08:15:05.021Z,24
2016-10-22T08:16:05.013Z,24
2016-10-22T08:17:04.984Z,24
2016-10-22T08:18:04.973Z,24
2016-10-22T08:19:04.958Z,24
2016-10-22T08:20:04.629Z,24
2016-10-22T08:21:04.604Z,24
2016-10-22T08:22:04.590Z,24
2016-10-22T08:23:04.889Z,24
2016-10-22T08:24:04.918Z,24
2016-10-22T08:25:04.559Z,24
2016-10-22T08:26:04.864Z,24
2016-10-22T08:27:04.552Z,24
2016-10-22T08:28:04.812Z,24
2016-10-22T08:29:04.817Z,24
2016-10-22T08:30:04.465Z,24
2016-10-22T08:31:04.771Z,28
2016-10-22T08:32:04.742Z,28
2016-10-22T08:33:04.415Z,28
2016-10-22T08:34:04.718Z,28
2016-10-22T08:35:04.700Z,28
2016-10-22T08:36:04.688Z,24
2016-10-22T08:37:04.041Z,24
2016-10-22T08:38:04.653Z,28
2016-10-22T08:39:04.642Z,24
2016-10-22T08:40:04.627Z,24
2016-10-22T08:41:04.608Z,24
2016-10-22T08:42:04.592Z,28
2016-10-22T08:43:04.571Z,24
2016-10-22T08:44:04.557Z,28
2016-10-22T08:45:04.541Z,24
2016-10-22T08:46:04.530Z,28
2016-10-22T08:47:04.525Z,28
2016-10-22T08:48:04.501Z,28
2016-10-22T08:49:04.172Z,28
2016-10-22T08:50:04.467Z,32
2016-10-22T08:51:03.822Z,28
2016-10-22T08:52:04.437Z,28
2016-10-22T08:53:04.427Z,28
2016-10-22T08:54:04.402Z,28
2016-10-22T08:55:04.413Z,28
2016-10-22T08:56:04.376Z,28
2016-10-22T08:57:04.362Z,28
2016-10-22T08:58:04.361Z,28
2016-10-22T08:59:04.340Z,28
2016-10-22T09:00:04.309Z,28
2016-10-22T09:01:04.286Z,32
2016-10-22T09:02:04.278Z,32
2016-10-22T09:03:04.257Z,32
2016-10-22T09:04:03.930Z,32
2016-10-22T09:05:04.225Z,28
2016-10-22T09:06:04.221Z,28
2016-10-22T09:07:04.198Z,32
2016-10-22T09:08:04.183Z,32
2016-10-22T09:09:04.174Z,32
2016-10-22T09:10:03.827Z,28
2016-10-22T09:11:03.818Z,32
2016-10-22T09:12:04.124Z,32
2016-10-22T09:13:04.103Z,28
2016-10-22T09:14:04.090Z,28
2016-10-22T09:15:03.771Z,28
2016-10-22T09:16:04.060Z,28
2016-10-22T09:17:03.724Z,28
2016-10-22T09:18:04.028Z,28
2016-10-22T09:19:03.690Z,28
2016-10-22T09:20:03.995Z,28
2016-10-22T09:21:03.984Z,28
2016-10-22T09:22:03.960Z,32
2016-10-22T09:23:03.945Z,28
2016-10-22T09:24:03.928Z,32
2016-10-22T09:25:03.597Z,32
2016-10-22T09:26:03.907Z,12
2016-10-22T09:27:03.882Z,12
2016-10-22T09:28:03.909Z,12
2016-10-22T09:29:03.864Z,12
2016-10-22T09:30:03.527Z,12
2016-10-22T09:31:03.513Z,12
2016-10-22T09:32:03.498Z,12
2016-10-22T09:33:03.483Z,12
2016-10-22T09:34:03.771Z,12
2016-10-22T09:35:03.789Z,12
2016-10-22T09:36:03.749Z,12
2016-10-22T09:37:03.734Z,12
2016-10-22T09:38:03.709Z,12
2016-10-22T09:39:03.728Z,12
2016-10-22T09:40:03.679Z,12
2016-10-22T09:41:03.667Z,12
2016-10-22T09:42:03.338Z,12
2016-10-22T09:43:03.632Z,12
2016-10-22T09:44:03.611Z,12
2016-10-22T09:45:03.596Z,12
2016-10-22T09:46:03.579Z,12
2016-10-22T09:47:03.580Z,12
2016-10-22T09:48:03.279Z,16
2016-10-22T09:49:03.540Z,16
2016-10-22T09:50:03.528Z,8
2016-10-22T09:51:03.511Z,12
2016-10-22T09:52:03.480Z,12
2016-10-22T09:53:02.850Z,8
2016-10-22T09:54:03.452Z,8
2016-10-22T09:55:03.441Z,8
2016-10-22T09:56:03.115Z,8
2016-10-22T09:57:03.406Z,8
2016-10-22T09:58:03.397Z,12
2016-10-22T09:59:03.067Z,12
2016-10-22T10:00:03.368Z,12
2016-10-22T10:01:03.034Z,12
2016-10-22T10:02:03.334Z,12
2016-10-22T10:03:03.313Z,12
2016-10-22T10:04:02.989Z,16
2016-10-22T10:05:03.276Z,16
2016-10-22T10:06:02.745Z,16
2016-10-22T10:07:02.750Z,12
2016-10-22T10:08:03.012Z,12
2016-10-22T10:09:02.909Z,16
2016-10-22T10:10:03.272Z,16
2016-10-22T10:11:03.197Z,20
2016-10-22T10:12:02.595Z,16
2016-10-22T10:13:02.834Z,20
2016-10-22T10:14:03.137Z,20
2016-10-22T10:15:03.121Z,16
2016-10-22T10:16:02.800Z,20
2016-10-22T10:17:02.779Z,20
2016-10-22T10:18:03.081Z,20
2016-10-22T10:19:03.058Z,16
2016-10-22T10:20:03.060Z,16
2016-10-22T10:21:03.038Z,12
2016-10-22T10:22:03.015Z,12
2016-10-22T10:23:02.996Z,12
2016-10-22T10:24:02.982Z,12
2016-10-22T10:25:02.970Z,8
2016-10-22T10:26:02.644Z,12
2016-10-22T10:27:02.941Z,8
2016-10-22T10:28:02.283Z,8
2016-10-22T10:29:02.906Z,8
2016-10-22T10:30:02.571Z,8
2016-10-22T10:31:02.886Z,12
2016-10-22T10:32:02.539Z,12
2016-10-22T10:33:02.838Z,12
2016-10-22T10:34:02.822Z,16
2016-10-22T10:35:02.809Z,12
2016-10-22T10:36:02.470Z,16
2016-10-22T10:37:02.791Z,16
2016-10-22T10:38:02.762Z,16
2016-10-22T10:39:02.741Z,20
2016-10-22T10:40:02.724Z,20
2016-10-22T10:41:02.706Z,20
2016-10-22T10:42:02.703Z,24
2016-10-22T10:43:02.369Z,24
2016-10-22T10:44:02.659Z,24
2016-10-22T10:45:02.337Z,24
2016-10-22T10:46:02.637Z,24
2016-10-22T10:47:02.306Z,28
2016-10-22T10:48:02.593Z,24
2016-10-22T10:49:02.587Z,28
2016-10-22T10:50:02.571Z,28
2016-10-22T10:51:02.562Z,28
2016-10-22T10:52:02.231Z,20
2016-10-22T10:53:02.528Z,16
2016-10-22T10:54:02.516Z,16
2016-10-22T10:55:02.533Z,16
2016-10-22T10:56:02.490Z,16
2016-10-22T10:57:02.144Z,20
2016-10-22T10:58:02.475Z,16
2016-10-22T10:59:02.116Z,20
2016-10-22T11:00:02.459Z,16
2016-10-22T11:01:02.388Z,16
2016-10-22T11:02:02.392Z,20
2016-10-22T11:03:02.379Z,20
2016-10-22T11:04:02.352Z,16
2016-10-22T11:05:01.751Z,16
2016-10-22T11:06:02.322Z,16
2016-10-22T11:07:02.328Z,16
2016-10-22T11:08:02.289Z,16
2016-10-22T11:09:02.282Z,16
2016-10-22T11:10:01.959Z,16
2016-10-22T11:11:01.931Z,16
2016-10-22T11:12:01.913Z,12
2016-10-22T11:13:02.211Z,8
2016-10-22T11:14:02.206Z,8
2016-10-22T11:15:01.861Z,8
2016-10-22T11:16:02.172Z,12
2016-10-22T11:17:02.153Z,12
2016-10-22T11:18:02.139Z,12
2016-10-22T11:19:02.130Z,12
2016-10-22T11:20:02.097Z,12
2016-10-22T11:21:02.125Z,12
2016-10-22T11:22:02.076Z,12
2016-10-22T11:23:02.105Z,12
2016-10-22T11:24:02.044Z,12
2016-10-22T11:25:01.717Z,12
2016-10-22T11:26:02.016Z,12
2016-10-22T11:27:01.994Z,8
2016-10-22T11:28:01.676Z,8
2016-10-22T11:29:01.964Z,8
2016-10-22T11:30:01.954Z,12
2016-10-22T11:31:01.974Z,8
2016-10-22T11:32:01.924Z,8
2016-10-22T11:33:01.903Z,8
2016-10-22T11:34:01.891Z,12
2016-10-22T11:35:01.867Z,12
2016-10-22T11:36:01.860Z,12
2016-10-22T11:37:01.840Z,8
2016-10-22T11:38:01.515Z,8
2016-10-22T11:39:01.800Z,8
2016-10-22T11:40:01.795Z,8
2016-10-22T11:41:01.775Z,12
2016-10-22T11:42:01.464Z,12
2016-10-22T11:43:01.746Z,12
2016-10-22T11:44:01.730Z,8
2016-10-22T11:45:01.404Z,8
2016-10-22T11:46:01.698Z,8
2016-10-22T11:47:01.690Z,8
2016-10-22T11:48:01.053Z,8
2016-10-22T11:49:01.333Z,8
2016-10-22T11:50:01.636Z,8
2016-10-22T11:51:01.301Z,8
2016-10-22T11:52:01.606Z,8
2016-10-22T11:53:01.272Z,8
2016-10-22T11:54:01.592Z,8
2016-10-22T11:55:01.560Z,12
2016-10-22T11:56:01.545Z,12
2016-10-22T11:57:01.223Z,8
2016-10-22T11:58:01.210Z,8
2016-10-22T11:59:01.499Z,8
2016-10-22T12:00:01.509Z,8
2016-10-22T12:01:01.463Z,12
2016-10-22T12:02:01.452Z,12
2016-10-22T12:03:01.117Z,12
2016-10-22T12:04:01.424Z,12
2016-10-22T12:05:01.420Z,12
2016-10-22T12:06:01.385Z,8
2016-10-22T12:07:01.658Z,12
2016-10-22T12:08:01.361Z,12
2016-10-22T12:09:01.337Z,12
2016-10-22T12:10:01.330Z,8
2016-10-22T12:11:01.310Z,8
2016-10-22T12:12:01.296Z,8
2016-10-22T12:13:01.264Z,8
2016-10-22T12:14:01.260Z,12
2016-10-22T12:15:01.239Z,12
2016-10-22T12:16:01.236Z,12
2016-10-22T12:17:01.210Z,12
2016-10-22T12:18:01.193Z,8
2016-10-22T12:19:01.181Z,12
2016-10-22T12:20:01.171Z,12
2016-10-22T12:21:01.151Z,8
2016-10-22T12:22:01.125Z,12
2016-10-22T12:23:01.117Z,12
2016-10-22T12:24:01.094Z,16
2016-10-22T12:25:01.084Z,12
2016-10-22T12:26:01.065Z,12
2016-10-22T12:27:01.052Z,12
2016-10-22T12:28:01.033Z,16
2016-10-22T12:29:01.020Z,16
2016-10-22T12:30:01.004Z,16
2016-10-22T12:31:00.677Z,16
2016-10-22T12:32:00.658Z,12
2016-10-22T12:33:00.953Z,12
2016-10-22T12:34:00.934Z,16
2016-10-22T12:35:00.913Z,12
2016-10-22T12:36:00.921Z,12
2016-10-22T12:37:00.896Z,12
2016-10-22T12:38:00.896Z,12
2016-10-22T12:39:00.863Z,12
2016-10-22T12:40:00.526Z,12
2016-10-22T12:41:00.876Z,16
2016-10-22T12:42:00.818Z,16
2016-10-22T12:43:00.835Z,16
2016-10-22T12:44:00.781Z,20
2016-10-22T12:45:00.760Z,24
2016-10-22T12:46:00.757Z,28
2016-10-22T12:47:00.731Z,28
2016-10-22T12:48:00.716Z,28
2016-10-22T12:49:00.709Z,28
2016-10-22T12:50:00.378Z,24
2016-10-22T12:51:00.673Z,20
2016-10-22T12:52:00.385Z,24
2016-10-22T12:53:00.324Z,20
2016-10-22T12:54:00.623Z,20
2016-10-22T12:55:00.621Z,20
2016-10-22T12:56:00.593Z,24
2016-10-22T12:57:00.589Z,24
2016-10-22T12:58:00.564Z,24
2016-10-22T12:59:00.553Z,16
2016-10-22T13:00:00.530Z,8
2016-10-22T13:01:00.521Z,4
2016-10-22T13:02:00.499Z,8
2016-10-22T13:03:00.498Z,8
2016-10-22T13:04:00.157Z,4
2016-10-22T13:05:00.455Z,8
2016-10-22T13:06:00.435Z,8
2016-10-22T13:07:00.425Z,12
2016-10-22T13:08:00.090Z,12
2016-10-22T13:09:00.077Z,16
2016-10-22T13:10:00.373Z,16
2016-10-22T13:11:00.368Z,20
2016-10-22T13:12:00.079Z,20
2016-10-22T13:13:00.341Z,28
2016-10-22T13:14:00.333Z,24
2016-10-22T13:15:00.312Z,32
2016-10-22T13:16:00.283Z,56
2016-10-22T13:17:00.269Z,32
2016-10-22T13:18:00.250Z,44
2016-10-22T13:19:00.272Z,44
2016-10-22T13:20:00.220Z,132
2016-10-22T13:20:59.924Z,36
2016-10-22T13:22:00.185Z,32
2016-10-22T13:22:59.851Z,24
2016-10-22T13:24:00.162Z,20
2016-10-22T13:25:00.153Z,12
2016-10-22T13:26:00.132Z,12
2016-10-22T13:27:00.107Z,8
2016-10-22T13:28:00.103Z,8
2016-10-22T13:29:00.084Z,8
2016-10-22T13:29:59.764Z,12
2016-10-22T13:31:00.048Z,8
2016-10-22T13:32:00.041Z,8
2016-10-22T13:32:59.695Z,8
2016-10-22T13:33:59.678Z,8
2016-10-22T13:34:59.993Z,8
2016-10-22T13:35:59.697Z,8
2016-10-22T13:36:59.962Z,8
2016-10-22T13:37:59.937Z,8
2016-10-22T13:38:59.926Z,4
2016-10-22T13:39:59.603Z,8
2016-10-22T13:40:59.896Z,8
2016-10-22T13:41:59.879Z,8
2016-10-22T13:42:59.869Z,4
2016-10-22T13:43:59.834Z,4
2016-10-22T13:44:59.828Z,8
2016-10-22T13:45:59.814Z,12
2016-10-22T13:46:59.816Z,8
2016-10-22T13:47:59.783Z,12
2016-10-22T13:48:59.766Z,12
2016-10-22T13:49:59.752Z,16
2016-10-22T13:50:59.727Z,16
2016-10-22T13:51:59.754Z,12
2016-10-22T13:52:59.705Z,8
2016-10-22T13:53:59.682Z,8
2016-10-22T13:54:59.674Z,8
2016-10-22T13:55:59.647Z,8
2016-10-22T13:56:59.634Z,12
2016-10-22T13:57:59.620Z,8
2016-10-22T13:58:59.305Z,8
2016-10-22T13:59:59.588Z,8
2016-10-22T14:00:59.580Z,8
2016-10-22T14:01:59.560Z,8
2016-10-22T14:02:59.548Z,8
2016-10-22T14:03:59.531Z,8
2016-10-22T14:04:59.527Z,8
2016-10-22T14:05:59.502Z,8
2016-10-22T14:06:59.484Z,8
2016-10-22T14:07:59.463Z,8
2016-10-22T14:08:58.813Z,8
2016-10-22T14:09:59.441Z,8
2016-10-22T14:10:59.104Z,8
2016-10-22T14:11:59.089Z,8
2016-10-22T14:12:59.117Z,8
2016-10-22T14:13:59.373Z,8
2016-10-22T14:14:59.355Z,8
2016-10-22T14:15:59.340Z,8
2016-10-22T14:16:59.329Z,4
2016-10-22T14:17:59.314Z,8
2016-10-22T14:18:59.296Z,4
2016-10-22T14:19:59.292Z,4
2016-10-22T14:20:59.254Z,4
2016-10-22T14:21:59.273Z,4
2016-10-22T14:22:59.234Z,4
2016-10-22T14:23:59.259Z,8
2016-10-22T14:24:59.227Z,8
2016-10-22T14:25:59.180Z,4
2016-10-22T14:26:58.869Z,4
2016-10-22T14:27:59.152Z,4
2016-10-22T14:28:58.820Z,4
2016-10-22T14:29:59.113Z,4
2016-10-22T14:30:59.117Z,4
2016-10-22T14:31:59.101Z,4
2016-10-22T14:32:59.085Z,4
2016-10-22T14:33:59.062Z,4